createdAt,value
2022-09-23T00:01:03.708Z,12.13
2022-09-23T00:03:31.847Z,12.30
2022-09-23T00:06:04.086Z,12.57
2022-09-23T00:08:30.983Z,13.05
2022-09-23T00:11:03.866Z,12.77
2022-09-23T00:13:30.779Z,12.77
2022-09-23T00:15:57.541Z,13.23
2022-09-23T00:18:24.386Z,13.40
2022-09-23T00:20:52.861Z,13.60
2022-09-23T00:23:19.673Z,13.23
2022-09-23T00:25:55.126Z,12.63
2022-09-23T00:28:22.043Z,12.85
2022-09-23T00:30:48.835Z,13.10
2022-09-23T00:33:15.787Z,12.80
2022-09-23T00:35:42.560Z,13.02
2022-09-23T00:38:09.371Z,13.32
2022-09-23T00:40:39.162Z,13.23
2022-09-23T00:43:06.184Z,14.20
2022-09-23T00:45:33.098Z,12.73
2022-09-23T00:48:01.967Z,13.18
2022-09-23T00:50:35.313Z,12.75
2022-09-23T00:53:07.662Z,13.27
2022-09-23T00:55:37.403Z,12.47
2022-09-23T00:58:06.570Z,13.07
2022-09-23T01:00:36.684Z,13.35
2022-09-23T01:03:05.589Z,13.10
2022-09-23T01:05:33.623Z,12.85
2022-09-23T01:08:02.629Z,13.53
2022-09-23T01:11:16.009Z,14.05
2022-09-23T01:14:10.960Z,14.65
2022-09-23T01:16:41.189Z,14.32
2022-09-23T01:19:36.222Z,13.57
2022-09-23T01:22:18.412Z,13.13
2022-09-23T01:24:57.946Z,13.40
2022-09-23T01:27:43.370Z,14.38
2022-09-23T01:30:37.666Z,13.65
2022-09-23T01:33:11.259Z,13.55
2022-09-23T01:35:42.387Z,14.67
2022-09-23T01:38:17.933Z,14.25
2022-09-23T01:40:59.889Z,13.88
2022-09-23T01:43:44.409Z,13.35
2022-09-23T01:46:20.615Z,14.40
2022-09-23T01:49:07.458Z,13.77
2022-09-23T01:51:43.090Z,13.35
2022-09-23T01:54:26.139Z,13.52
2022-09-23T01:57:03.678Z,14.32
2022-09-23T01:59:36.833Z,14.50
2022-09-23T02:02:32.613Z,14.00
2022-09-23T02:05:19.069Z,14.45
2022-09-23T02:08:12.942Z,14.95
2022-09-23T02:10:58.629Z,15.07
2022-09-23T02:13:54.560Z,14.38
2022-09-23T02:16:29.931Z,14.50
2022-09-23T02:18:59.560Z,14.73
2022-09-23T02:21:33.853Z,14.98
2022-09-23T02:24:28.246Z,15.07
2022-09-23T02:27:18.397Z,14.43
2022-09-23T02:30:08.918Z,14.50
2022-09-23T02:32:38.367Z,14.43
2022-09-23T02:35:19.709Z,15.10
2022-09-23T02:37:59.253Z,13.98
2022-09-23T02:40:50.943Z,14.25
2022-09-23T02:43:29.909Z,14.43
2022-09-23T02:45:56.772Z,15.55
2022-09-23T02:48:29.234Z,15.20
2022-09-23T02:50:57.504Z,14.52
2022-09-23T02:53:25.446Z,15.05
2022-09-23T02:55:52.373Z,15.17
2022-09-23T02:58:19.247Z,14.45
2022-09-23T03:01:06.429Z,15.32
2022-09-23T03:03:46.863Z,14.93
2022-09-23T03:06:30.477Z,15.10
2022-09-23T03:09:08.990Z,15.00
2022-09-23T03:11:40.112Z,14.88
2022-09-23T03:14:16.838Z,14.98
2022-09-23T03:17:03.441Z,15.18
2022-09-23T03:19:53.208Z,16.02
2022-09-23T03:22:34.073Z,16.20
2022-09-23T03:25:07.188Z,16.40
2022-09-23T03:27:36.691Z,16.55
2022-09-23T03:30:04.767Z,15.63
2022-09-23T03:32:34.128Z,16.35
2022-09-23T03:35:03.572Z,15.57
2022-09-23T03:37:47.184Z,15.73
2022-09-23T03:40:30.268Z,15.57
2022-09-23T03:42:58.741Z,15.45
2022-09-23T03:45:31.017Z,15.75
2022-09-23T03:47:58.287Z,14.80
2022-09-23T03:50:25.171Z,15.18
2022-09-23T03:52:51.939Z,14.88
2022-09-23T03:55:19.748Z,14.70
2022-09-23T03:57:46.946Z,14.38
2022-09-23T04:00:15.459Z,14.40
2022-09-23T04:02:42.616Z,14.48
2022-09-23T04:05:11.160Z,14.52
2022-09-23T04:07:38.267Z,13.20
2022-09-23T04:10:06.257Z,13.85
2022-09-23T04:12:33.162Z,13.57
2022-09-23T04:15:00.139Z,13.45
2022-09-23T04:17:27.086Z,13.98
2022-09-23T04:19:53.862Z,13.82
2022-09-23T04:22:21.261Z,12.45
2022-09-23T04:24:48.615Z,12.40
2022-09-23T04:27:15.400Z,12.60
2022-09-23T04:29:42.126Z,12.52
2022-09-23T04:32:08.883Z,13.30
2022-09-23T04:34:35.677Z,12.88
2022-09-23T04:37:02.420Z,12.40
2022-09-23T04:39:29.168Z,11.40
2022-09-23T04:41:55.938Z,12.07
2022-09-23T04:44:22.692Z,11.73
2022-09-23T04:46:49.719Z,11.68
2022-09-23T04:49:16.875Z,11.60
2022-09-23T04:51:43.882Z,11.50
2022-09-23T04:54:14.594Z,11.88
2022-09-23T04:56:41.657Z,12.15
2022-09-23T04:59:09.053Z,11.70
2022-09-23T05:01:36.584Z,11.90
2022-09-23T05:04:06.818Z,11.00
2022-09-23T05:06:37.393Z,11.48
2022-09-23T05:09:07.508Z,11.32
2022-09-23T05:11:34.982Z,11.60
2022-09-23T05:14:01.752Z,11.70
2022-09-23T05:16:29.694Z,11.68
2022-09-23T05:18:57.581Z,12.10
2022-09-23T05:21:28.417Z,11.60
2022-09-23T05:23:58.778Z,11.90
2022-09-23T05:26:28.370Z,12.10
2022-09-23T05:28:55.550Z,11.25
2022-09-23T05:31:24.892Z,11.45
2022-09-23T05:33:54.793Z,11.23
2022-09-23T05:36:23.015Z,11.43
2022-09-23T05:38:51.246Z,10.80
2022-09-23T05:41:20.675Z,11.00
2022-09-23T05:43:47.531Z,11.82
2022-09-23T05:46:15.677Z,11.45
2022-09-23T05:48:43.967Z,11.77
2022-09-23T05:51:14.136Z,12.00
2022-09-23T05:53:44.802Z,11.68
2022-09-23T05:56:16.584Z,11.10
2022-09-23T05:58:44.094Z,12.05
2022-09-23T06:01:15.567Z,11.93
2022-09-23T06:03:45.403Z,11.70
2022-09-23T06:06:14.643Z,11.20
2022-09-23T06:08:42.420Z,11.77
2022-09-23T06:11:09.957Z,11.55
2022-09-23T06:13:38.285Z,11.45
2022-09-23T06:16:07.931Z,11.93
2022-09-23T06:18:37.659Z,11.63
2022-09-23T06:21:05.140Z,11.35
2022-09-23T06:23:32.304Z,11.68
2022-09-23T06:26:07.288Z,12.15
2022-09-23T06:28:36.395Z,11.90
2022-09-23T06:31:12.381Z,11.15
2022-09-23T06:33:40.498Z,11.75
2022-09-23T06:36:08.144Z,12.07
2022-09-23T06:38:38.229Z,11.15
2022-09-23T06:41:05.064Z,11.57
2022-09-23T06:43:32.024Z,10.20
2022-09-23T06:46:02.393Z,9.93
2022-09-23T06:48:29.679Z,9.48
2022-09-23T06:51:02.441Z,9.30
2022-09-23T06:53:32.457Z,8.80
2022-09-23T06:56:05.773Z,8.73
2022-09-23T06:58:35.063Z,8.88
2022-09-23T07:01:07.224Z,8.23
2022-09-23T07:03:35.478Z,8.57
2022-09-23T07:06:02.854Z,7.77
2022-09-23T07:08:30.711Z,8.40
2022-09-23T07:10:59.445Z,8.13
2022-09-23T07:13:26.692Z,7.65
2022-09-23T07:15:55.736Z,7.72
2022-09-23T07:18:25.874Z,8.17
2022-09-23T07:20:54.726Z,7.35
2022-09-23T07:23:21.661Z,8.20
2022-09-23T07:25:50.205Z,7.70
2022-09-23T07:28:20.017Z,7.43
2022-09-23T07:30:58.486Z,7.20
2022-09-23T07:33:32.533Z,7.57
2022-09-23T07:36:04.058Z,7.68
2022-09-23T07:38:30.952Z,7.63
2022-09-23T07:41:07.147Z,7.93
2022-09-23T07:43:34.329Z,7.37
2022-09-23T07:46:03.724Z,7.75
2022-09-23T07:48:34.320Z,7.90
2022-09-23T07:51:07.902Z,7.50
2022-09-23T07:53:34.899Z,6.95
2022-09-23T07:56:01.895Z,7.10
2022-09-23T07:58:28.646Z,6.40
2022-09-23T08:00:55.557Z,7.15
2022-09-23T08:03:22.814Z,6.47
2022-09-23T08:05:50.645Z,6.90
2022-09-23T08:08:17.450Z,6.60
2022-09-23T08:10:44.410Z,6.85
2022-09-23T08:13:11.375Z,6.68
2022-09-23T08:15:38.489Z,7.10
2022-09-23T08:18:05.469Z,6.70
2022-09-23T08:20:47.085Z,6.83
2022-09-23T08:23:16.174Z,6.93
2022-09-23T08:25:47.256Z,6.90
2022-09-23T08:28:19.098Z,6.70
2022-09-23T08:30:48.792Z,7.40
2022-09-23T08:33:20.976Z,7.20
2022-09-23T08:35:49.825Z,7.00
2022-09-23T08:38:16.616Z,6.60
2022-09-23T08:40:47.478Z,7.05
2022-09-23T08:43:29.742Z,7.03
2022-09-23T08:46:01.653Z,7.27
2022-09-23T08:48:32.144Z,7.07
2022-09-23T08:51:08.022Z,6.80
2022-09-23T08:53:36.809Z,6.75
2022-09-23T08:56:23.935Z,6.72
2022-09-23T08:58:56.373Z,6.83
2022-09-23T09:01:44.927Z,7.40
2022-09-23T09:04:14.530Z,7.22
2022-09-23T09:06:53.030Z,7.50
2022-09-23T09:09:27.313Z,7.55
2022-09-23T09:12:23.790Z,7.37
2022-09-23T09:15:05.956Z,6.97
2022-09-23T09:17:38.380Z,7.55
2022-09-23T09:20:27.265Z,7.43
2022-09-23T09:23:00.551Z,7.25
2022-09-23T09:26:06.214Z,7.30
2022-09-23T09:28:46.231Z,7.30
2022-09-23T09:31:28.767Z,7.82
2022-09-23T09:34:01.129Z,7.18
2022-09-23T09:36:40.126Z,7.70
2022-09-23T09:39:16.162Z,7.70
2022-09-23T09:41:49.114Z,7.72
2022-09-23T09:44:48.077Z,7.28
2022-09-23T09:47:20.727Z,8.05
2022-09-23T09:50:03.870Z,8.23
2022-09-23T09:52:31.691Z,7.83
2022-09-23T09:55:13.763Z,8.15
2022-09-23T09:58:04.199Z,8.00
2022-09-23T10:00:31.011Z,8.00
2022-09-23T10:03:02.651Z,7.70
2022-09-23T10:05:46.605Z,7.93
2022-09-23T10:08:27.043Z,7.93
2022-09-23T10:11:04.664Z,8.68
2022-09-23T10:13:32.129Z,8.27
2022-09-23T10:16:01.506Z,8.30
2022-09-23T10:18:34.452Z,8.07
2022-09-23T10:21:10.713Z,7.82
2022-09-23T10:23:43.202Z,7.20
2022-09-23T10:26:12.193Z,7.70
2022-09-23T10:28:53.596Z,7.28
2022-09-23T10:31:26.460Z,7.33
2022-09-23T10:33:57.620Z,7.25
2022-09-23T10:36:24.868Z,7.40
2022-09-23T10:39:18.528Z,7.07
2022-09-23T10:42:30.846Z,7.50
2022-09-23T10:45:41.063Z,7.30
2022-09-23T10:48:18.627Z,7.30
2022-09-23T10:50:50.553Z,7.07
2022-09-23T10:53:53.356Z,7.40
2022-09-23T10:56:33.304Z,7.15
2022-09-23T10:59:13.154Z,7.17
2022-09-23T11:02:00.631Z,6.80
2022-09-23T11:04:39.421Z,6.75
2022-09-23T11:07:37.211Z,6.15
2022-09-23T11:10:35.359Z,5.95
2022-09-23T11:13:12.484Z,6.20
2022-09-23T11:15:48.194Z,6.43
2022-09-23T11:18:40.769Z,6.85
2022-09-23T11:21:46.089Z,6.35
2022-09-23T11:24:31.589Z,6.45
2022-09-23T11:27:07.599Z,5.27
2022-09-23T11:29:42.617Z,5.40
2022-09-23T11:32:46.999Z,5.28
2022-09-23T11:35:25.822Z,5.43
2022-09-23T11:38:00.991Z,4.95
2022-09-23T11:40:32.044Z,5.33
2022-09-23T11:43:23.508Z,4.90
2022-09-23T11:45:58.630Z,5.05
2022-09-23T11:48:45.908Z,4.97
2022-09-23T11:51:18.570Z,5.13
2022-09-23T11:54:22.737Z,4.90
2022-09-23T11:56:56.975Z,4.97
2022-09-23T11:59:43.054Z,5.00
2022-09-23T12:02:33.639Z,4.78
2022-09-23T12:05:09.293Z,4.60
2022-09-23T12:08:03.729Z,4.83
2022-09-23T12:10:48.678Z,5.10
2022-09-23T12:13:30.164Z,5.07
2022-09-23T12:16:33.838Z,5.40
2022-09-23T12:19:18.940Z,5.75
2022-09-23T12:21:50.583Z,5.50
2022-09-23T12:24:55.754Z,5.75
2022-09-23T12:27:51.069Z,5.90
2022-09-23T12:30:30.543Z,6.03
2022-09-23T12:33:22.548Z,6.20
2022-09-23T12:35:49.433Z,6.10
2022-09-23T12:38:28.338Z,6.05
2022-09-23T12:40:56.397Z,5.75
2022-09-23T12:43:33.065Z,6.00
2022-09-23T12:46:20.140Z,6.63
2022-09-23T12:49:00.624Z,6.20
2022-09-23T12:51:29.897Z,6.70
2022-09-23T12:54:15.348Z,7.10
2022-09-23T12:56:43.291Z,7.20
2022-09-23T12:59:25.169Z,7.07
2022-09-23T13:01:52.886Z,7.13
2022-09-23T13:04:47.692Z,7.30
2022-09-23T13:07:30.872Z,6.95
2022-09-23T13:10:27.783Z,7.22
2022-09-23T13:12:56.517Z,7.53
2022-09-23T13:15:33.896Z,7.20
2022-09-23T13:18:48.723Z,8.02
2022-09-23T13:21:18.510Z,7.70
2022-09-23T13:24:12.994Z,8.13
2022-09-23T13:26:45.372Z,8.15
2022-09-23T13:29:37.906Z,8.23
2022-09-23T13:32:06.274Z,8.23
2022-09-23T13:34:34.766Z,8.55
2022-09-23T13:37:25.298Z,8.65
2022-09-23T13:39:52.246Z,8.60
2022-09-23T13:42:23.579Z,7.53
2022-09-23T13:44:55.537Z,8.80
2022-09-23T13:47:22.316Z,8.45
2022-09-23T13:49:49.858Z,8.85
2022-09-23T13:52:32.446Z,8.48
2022-09-23T13:54:59.289Z,8.10
2022-09-23T13:57:34.852Z,7.90
2022-09-23T14:00:11.781Z,8.60
2022-09-23T14:02:46.873Z,8.55
2022-09-23T14:05:25.304Z,7.40
2022-09-23T14:07:53.624Z,7.90
2022-09-23T14:10:23.029Z,8.02
2022-09-23T14:12:52.062Z,8.00
2022-09-23T14:15:20.597Z,7.32
2022-09-23T14:17:49.944Z,7.70
2022-09-23T14:20:18.093Z,7.30
2022-09-23T14:22:46.069Z,7.70
2022-09-23T14:25:17.977Z,7.53
2022-09-23T14:27:47.089Z,7.53
2022-09-23T14:30:18.749Z,7.63
2022-09-23T14:32:47.894Z,7.43
2022-09-23T14:35:38.092Z,7.10
2022-09-23T14:38:23.778Z,7.10
2022-09-23T14:41:17.286Z,6.50
2022-09-23T14:43:57.285Z,6.40
2022-09-23T14:46:29.335Z,5.53
2022-09-23T14:49:05.893Z,5.70
2022-09-23T14:51:41.792Z,5.82
2022-09-23T14:54:50.810Z,5.90
2022-09-23T14:57:29.644Z,5.57
2022-09-23T15:00:00.728Z,5.90
2022-09-23T15:02:31.148Z,5.95
2022-09-23T15:05:14.636Z,5.93
2022-09-23T15:07:43.106Z,5.88
2022-09-23T15:10:19.924Z,5.28
2022-09-23T15:12:50.357Z,5.40
2022-09-23T15:15:18.776Z,5.50
2022-09-23T15:17:46.599Z,5.65
2022-09-23T15:20:16.388Z,5.85
2022-09-23T15:22:53.601Z,5.72
2022-09-23T15:25:28.079Z,5.80
2022-09-23T15:28:19.028Z,5.90
2022-09-23T15:30:45.849Z,6.45
2022-09-23T15:33:16.366Z,6.47
2022-09-23T15:35:49.194Z,6.32
2022-09-23T15:38:17.527Z,6.37
2022-09-23T15:40:44.416Z,6.70
2022-09-23T15:43:20.611Z,6.70
2022-09-23T15:45:53.693Z,7.25
2022-09-23T15:48:27.636Z,7.20
2022-09-23T15:50:55.009Z,7.10
2022-09-23T15:53:27.754Z,7.53
2022-09-23T15:55:54.590Z,7.60
2022-09-23T15:58:22.532Z,8.00
2022-09-23T16:00:56.374Z,7.90
2022-09-23T16:03:30.317Z,7.73
2022-09-23T16:06:00.644Z,8.52
2022-09-23T16:08:28.786Z,8.43
2022-09-23T16:10:56.147Z,8.40
2022-09-23T16:13:23.124Z,8.20
2022-09-23T16:15:50.110Z,8.33
2022-09-23T16:18:17.050Z,8.23
2022-09-23T16:20:46.020Z,8.15
2022-09-23T16:23:35.839Z,8.80
2022-09-23T16:26:07.672Z,9.13
2022-09-23T16:28:34.834Z,8.80
2022-09-23T16:31:01.612Z,8.52
2022-09-23T16:33:28.332Z,9.23
2022-09-23T16:35:55.493Z,9.23
2022-09-23T16:38:22.334Z,9.65
2022-09-23T16:40:49.122Z,10.50
2022-09-23T16:43:16.116Z,9.65
2022-09-23T16:45:43.300Z,9.75
2022-09-23T16:48:11.145Z,9.52
2022-09-23T16:50:37.919Z,9.90
2022-09-23T16:53:04.686Z,9.63
2022-09-23T16:55:31.483Z,9.85
2022-09-23T16:57:58.333Z,10.07
2022-09-23T17:00:43.769Z,10.82
2022-09-23T17:03:31.622Z,10.50
2022-09-23T17:05:58.905Z,10.93
2022-09-23T17:08:25.736Z,11.35
2022-09-23T17:10:58.529Z,11.15
2022-09-23T17:13:29.545Z,11.00
2022-09-23T17:15:56.499Z,10.88
2022-09-23T17:18:23.499Z,11.50
2022-09-23T17:21:16.435Z,10.88
2022-09-23T17:23:43.200Z,11.88
2022-09-23T17:26:12.564Z,10.60
2022-09-23T17:28:39.683Z,11.20
2022-09-23T17:31:07.349Z,10.90
2022-09-23T17:33:37.608Z,11.27
2022-09-23T17:36:09.189Z,11.93
2022-09-23T17:38:36.527Z,11.60
2022-09-23T17:41:04.763Z,11.73
2022-09-23T17:43:32.823Z,12.40
2022-09-23T17:46:08.611Z,13.30
2022-09-23T17:48:41.319Z,13.80
2022-09-23T17:51:15.759Z,13.13
2022-09-23T17:53:45.317Z,12.75
2022-09-23T17:56:24.951Z,12.70
2022-09-23T17:58:53.498Z,12.10
2022-09-23T18:01:23.008Z,12.55
2022-09-23T18:03:58.175Z,12.65
2022-09-23T18:06:27.630Z,12.65
2022-09-23T18:08:55.918Z,12.40
2022-09-23T18:11:25.753Z,13.43
2022-09-23T18:14:00.819Z,13.55
2022-09-23T18:16:30.853Z,13.80
2022-09-23T18:19:00.322Z,14.77
2022-09-23T18:21:32.567Z,13.67
2022-09-23T18:24:21.687Z,14.15
2022-09-23T18:26:49.698Z,15.70
2022-09-23T18:29:16.920Z,14.27
2022-09-23T18:31:45.062Z,14.48
2022-09-23T18:34:13.847Z,14.37
2022-09-23T18:36:40.652Z,14.80
2022-09-23T18:39:07.876Z,13.50
2022-09-23T18:41:35.318Z,14.70
2022-09-23T18:44:02.584Z,13.77
2022-09-23T18:46:30.658Z,14.73
2022-09-23T18:49:17.217Z,14.45
2022-09-23T18:51:51.074Z,15.43
2022-09-23T18:54:19.484Z,13.93
2022-09-23T18:56:46.883Z,15.32
2022-09-23T18:59:16.633Z,14.80
2022-09-23T19:01:45.712Z,13.85
2022-09-23T19:04:15.192Z,14.40
2022-09-23T19:06:41.927Z,15.57
2022-09-23T19:09:09.295Z,15.20
2022-09-23T19:11:36.453Z,15.13
2022-09-23T19:14:06.464Z,13.02
2022-09-23T19:16:34.850Z,15.70
2022-09-23T19:19:02.406Z,15.20
2022-09-23T19:21:30.313Z,15.38
2022-09-23T19:24:05.732Z,16.17
2022-09-23T19:26:38.523Z,16.17
2022-09-23T19:29:08.253Z,16.05
2022-09-23T19:31:40.202Z,16.25
2022-09-23T19:34:15.349Z,16.48
2022-09-23T19:36:44.558Z,15.47
2022-09-23T19:39:23.262Z,16.60
2022-09-23T19:41:52.190Z,15.23
2022-09-23T19:44:20.085Z,16.80
2022-09-23T19:46:53.457Z,16.50
2022-09-23T19:49:24.196Z,16.60
2022-09-23T19:51:51.499Z,16.83
2022-09-23T19:54:20.583Z,16.58
2022-09-23T19:56:49.597Z,16.67
2022-09-23T19:59:19.189Z,18.38
2022-09-23T20:01:47.262Z,16.53
2022-09-23T20:04:15.696Z,18.83
2022-09-23T20:06:42.640Z,17.83
2022-09-23T20:09:09.632Z,17.55
2022-09-23T20:11:36.437Z,15.73
2022-09-23T20:14:05.823Z,15.73
2022-09-23T20:16:35.338Z,15.45
2022-09-23T20:19:03.949Z,17.00
2022-09-23T20:21:30.747Z,18.10
2022-09-23T20:23:58.087Z,16.95
2022-09-23T20:26:43.773Z,17.13
2022-09-23T20:29:11.276Z,17.40
2022-09-23T20:31:40.241Z,17.60
2022-09-23T20:34:08.195Z,17.33
2022-09-23T20:36:36.019Z,16.80
2022-09-23T20:39:07.770Z,16.87
2022-09-23T20:41:37.984Z,16.95
2022-09-23T20:44:07.635Z,17.08
2022-09-23T20:46:35.646Z,16.20
2022-09-23T20:49:03.657Z,16.25
2022-09-23T20:51:33.106Z,15.50
2022-09-23T20:54:00.118Z,15.65
2022-09-23T20:56:27.575Z,16.15
2022-09-23T20:58:54.631Z,16.10
2022-09-23T21:01:21.921Z,16.58
2022-09-23T21:03:51.303Z,17.50
2022-09-23T21:06:19.555Z,17.33
2022-09-23T21:08:46.483Z,17.50
2022-09-23T21:11:15.878Z,17.67
2022-09-23T21:13:47.590Z,18.92
2022-09-23T21:16:17.723Z,18.73
2022-09-23T21:18:45.535Z,19.25
2022-09-23T21:21:14.312Z,19.48
2022-09-23T21:23:43.327Z,21.13
2022-09-23T21:26:13.750Z,21.52
2022-09-23T21:28:45.287Z,20.90
2022-09-23T21:31:23.958Z,20.25
2022-09-23T21:34:14.531Z,22.30
2022-09-23T21:36:43.267Z,21.10
2022-09-23T21:39:11.592Z,21.08
2022-09-23T21:41:39.495Z,20.50
2022-09-23T21:44:07.881Z,19.67
2022-09-23T21:46:35.308Z,19.85
2022-09-23T21:49:04.082Z,19.00
2022-09-23T21:51:40.667Z,17.58
2022-09-23T21:54:13.555Z,16.23
2022-09-23T21:56:40.463Z,16.48
2022-09-23T21:59:08.208Z,16.88
2022-09-23T22:01:41.399Z,14.40
2022-09-23T22:04:14.996Z,15.57
2022-09-23T22:06:41.931Z,15.40
2022-09-23T22:09:12.804Z,15.93
2022-09-23T22:11:58.340Z,15.75
2022-09-23T22:14:26.261Z,15.02
2022-09-23T22:16:57.392Z,14.80
2022-09-23T22:19:26.839Z,15.87
2022-09-23T22:21:55.743Z,15.40
2022-09-23T22:24:22.607Z,15.52
2022-09-23T22:26:49.506Z,13.95
2022-09-23T22:29:35.100Z,14.90
2022-09-23T22:32:22.209Z,15.33
2022-09-23T22:34:50.981Z,16.38
2022-09-23T22:37:20.923Z,16.55
2022-09-23T22:39:47.771Z,18.17
2022-09-23T22:42:14.669Z,18.95
2022-09-23T22:44:41.567Z,19.67
2022-09-23T22:47:09.407Z,19.77
2022-09-23T22:49:36.597Z,19.15
2022-09-23T22:52:06.926Z,20.20
2022-09-23T22:54:34.447Z,20.80
2022-09-23T22:57:03.704Z,20.87
2022-09-23T22:59:30.844Z,19.80
2022-09-23T23:02:00.227Z,20.45
2022-09-23T23:04:28.528Z,19.15
2022-09-23T23:06:56.140Z,20.00
2022-09-23T23:09:23.419Z,19.57
2022-09-23T23:11:50.227Z,20.00
2022-09-23T23:14:18.610Z,20.35
2022-09-23T23:16:46.057Z,20.73
2022-09-23T23:19:16.441Z,20.75
2022-09-23T23:21:44.839Z,19.77
2022-09-23T23:24:16.158Z,17.10
2022-09-23T23:26:43.311Z,17.02
2022-09-23T23:29:12.214Z,16.90
2022-09-23T23:31:39.387Z,17.70
2022-09-23T23:34:08.329Z,17.03
2022-09-23T23:36:35.349Z,17.27
2022-09-23T23:39:02.136Z,16.48
2022-09-23T23:41:28.971Z,14.90
2022-09-23T23:43:58.888Z,16.60
2022-09-23T23:46:28.509Z,14.60
2022-09-23T23:48:56.717Z,14.65
2022-09-23T23:51:27.737Z,15.45
2022-09-23T23:53:55.355Z,14.93
2022-09-23T23:56:24.877Z,14.68
2022-09-23T23:59:00.026Z,14.37
